Time;durP1;ratioP1;P1;durP2;ratioP2;P2;SDS_P1;SDS_P2;PMS_P1;PMS_P2;Temp;Humidity;BMP_temperature;BMP_pressure;BME280_temperature;BME280_humidity;BME280_pressure;Samples;Min_cycle;Max_cycle;Signal;HPM_P1;HPM_P2
2022/02/05 00:44:08;;;;;;;0.88;0.60;;;4.70;99.90;;;;;;5077522;28;20070;-73
2022/02/05 00:46:38;;;;;;;3.28;1.02;;;4.60;99.90;;;;;;5092331;28;20067;-73
2022/02/05 00:49:11;;;;;;;0.90;0.63;;;4.60;99.90;;;;;;5075418;28;20036;-73
2022/02/05 00:51:50;;;;;;;1.15;0.73;;;4.50;99.90;;;;;;5076093;28;20044;-73
2022/02/05 00:54:20;;;;;;;0.95;0.73;;;4.50;99.90;;;;;;5091343;28;20134;-73
2022/02/05 00:56:51;;;;;;;0.57;0.43;;;4.40;99.90;;;;;;5075044;28;20526;-73
2022/02/05 00:59:19;;;;;;;1.20;0.80;;;4.50;99.90;;;;;;5091545;28;20052;-73
2022/02/05 01:01:51;;;;;;;1.10;0.80;;;4.40;99.90;;;;;;5092670;28;20809;-74
2022/02/05 01:04:23;;;;;;;1.20;0.80;;;4.40;99.90;;;;;;5073984;28;20131;-73
2022/02/05 01:06:54;;;;;;;1.27;0.88;;;4.40;99.90;;;;;;5074043;28;20093;-73
2022/02/05 01:09:25;;;;;;;1.42;0.82;;;4.30;99.90;;;;;;5057956;28;20052;-74
2022/02/05 01:11:58;;;;;;;1.75;1.00;;;4.30;99.90;;;;;;5075141;28;20050;-74
2022/02/05 01:14:41;;;;;;;1.52;0.90;;;4.30;99.90;;;;;;5058015;28;20139;-73
2022/02/05 01:17:14;;;;;;;1.85;1.00;;;4.20;99.90;;;;;;5092393;28;20050;-74
2022/02/05 01:22:21;;;;;;;1.80;1.30;;;4.00;99.90;;;;;;5092092;28;20051;-73
2022/02/05 01:24:54;;;;;;;3.05;1.10;;;4.00;99.90;;;;;;5058138;28;20036;-73
2022/02/05 01:27:37;;;;;;;1.40;0.98;;;4.00;99.90;;;;;;5074236;28;20046;-73
2022/02/05 01:30:20;;;;;;;1.48;1.05;;;3.90;99.90;;;;;;5074578;28;20122;-73
2022/02/05 01:33:41;;;;;;;0.88;0.73;;;3.80;99.90;;;;;;5090440;28;20036;-74
2022/02/05 01:36:07;;;;;;;1.60;1.20;;;3.80;99.90;;;;;;5088973;28;20143;-73
2022/02/05 01:50:13;;;;;;;1.20;1.00;;;3.40;99.90;;;;;;5091695;28;20122;-73
2022/02/05 01:53:25;;;;;;;2.22;0.90;;;3.30;99.90;;;;;;5091232;28;20040;-73
2022/02/05 02:12:04;;;;;;;1.00;0.90;;;3.00;99.90;;;;;;5090899;28;20089;-73
2022/02/05 02:14:47;;;;;;;1.30;0.80;;;2.90;99.90;;;;;;5090921;28;20040;-73
2022/02/05 02:17:59;;;;;;;2.05;1.30;;;2.90;99.90;;;;;;5091456;28;20040;-73
2022/02/05 02:23:23;;;;;;;1.20;1.10;;;2.90;99.90;;;;;;5090640;28;20039;-73
2022/02/05 02:28:32;;;;;;;1.35;0.90;;;2.70;99.90;;;;;;5090723;28;20058;-73
2022/02/05 02:31:09;;;;;;;1.60;1.40;;;2.70;99.90;;;;;;5052780;28;20436;-73
2022/02/05 02:33:42;;;;;;;3.72;1.23;;;2.70;99.90;;;;;;5070010;28;20058;-73
2022/02/05 02:36:40;;;;;;;1.92;1.30;;;2.60;99.90;;;;;;5069555;28;20120;-73
2022/02/05 02:39:14;;;;;;;2.33;1.38;;;2.50;99.90;;;;;;5071104;28;20453;-72
2022/02/05 02:41:47;;;;;;;2.20;1.65;;;2.50;99.90;;;;;;5052757;28;20388;-73
2022/02/05 02:44:18;;;;;;;2.40;1.20;;;2.50;99.90;;;;;;5069148;28;20049;-73
2022/02/05 02:46:45;;;;;;;1.63;1.50;;;2.50;99.90;;;;;;5069631;28;20120;-73
2022/02/05 02:49:17;;;;;;;2.08;1.42;;;2.50;99.90;;;;;;5070788;28;20043;-73
2022/02/05 02:57:23;;;;;;;2.00;1.80;;;2.40;99.90;;;;;;5091042;28;20140;-73
2022/02/05 02:59:59;;;;;;;2.88;1.48;;;2.40;99.90;;;;;;5072964;28;20384;-73
2022/02/05 03:02:31;;;;;;;1.80;1.40;;;2.40;99.90;;;;;;5090410;28;20127;-73
2022/02/05 03:05:03;;;;;;;2.25;1.50;;;2.40;99.90;;;;;;5092202;28;20039;-73
2022/02/05 03:07:35;;;;;;;2.33;1.67;;;2.30;99.90;;;;;;5073794;28;20044;-72
2022/02/05 03:10:07;;;;;;;3.75;1.50;;;2.30;99.90;;;;;;5073750;28;20036;-73
2022/02/05 03:12:39;;;;;;;1.58;1.48;;;2.30;99.90;;;;;;5073351;28;20040;-73
2022/02/05 03:15:07;;;;;;;3.35;1.70;;;2.30;99.90;;;;;;5056001;28;20541;-73
2022/02/05 03:17:42;;;;;;;2.33;1.40;;;2.30;99.90;;;;;;5056498;28;20044;-72
2022/02/05 03:20:10;;;;;;;2.28;1.73;;;2.30;99.90;;;;;;5090513;28;20054;-73
2022/02/05 03:22:41;;;;;;;1.60;1.42;;;2.30;99.90;;;;;;5073055;28;20047;-73
2022/02/05 03:25:13;;;;;;;2.50;1.88;;;2.30;99.90;;;;;;5089282;28;20130;-73
2022/02/05 03:27:47;;;;;;;;;;;2.30;99.90;;;;;;5073585;28;20090;-73
2022/02/05 03:30:18;;;;;;;2.70;1.48;;;2.20;99.90;;;;;;5089203;28;19924;-73
2022/02/05 03:32:50;;;;;;;3.08;1.55;;;2.20;99.90;;;;;;5090263;28;20150;-73
2022/02/05 03:35:17;;;;;;;1.58;1.48;;;2.10;99.90;;;;;;5089424;28;20040;-73
2022/02/05 03:37:44;;;;;;;3.55;2.10;;;2.10;99.90;;;;;;5090386;28;20406;-73
2022/02/05 03:40:11;;;;;;;2.10;1.58;;;2.10;99.90;;;;;;5089162;28;20147;-73
2022/02/05 03:42:43;;;;;;;2.38;1.80;;;2.10;99.90;;;;;;5091710;28;20049;-73
2022/02/05 03:45:15;;;;;;;2.47;1.88;;;2.10;99.90;;;;;;5094208;28;20127;-73
2022/02/05 03:47:50;;;;;;;2.65;1.70;;;2.00;99.90;;;;;;5094102;28;20044;-73
2022/02/05 03:50:17;;;;;;;2.22;1.70;;;2.10;99.90;;;;;;5076164;28;20047;-73
2022/02/05 03:52:49;;;;;;;3.17;1.80;;;2.10;99.90;;;;;;5075365;28;20040;-73
2022/02/05 03:55:16;;;;;;;2.47;1.83;;;2.10;99.90;;;;;;5094005;28;20051;-74
2022/02/05 03:57:47;;;;;;;2.60;1.63;;;2.10;99.90;;;;;;5094029;28;20051;-73
2022/02/05 04:00:15;;;;;;;2.58;1.55;;;2.00;99.90;;;;;;5075646;28;20130;-73
2022/02/05 04:02:44;;;;;;;3.55;2.13;;;2.00;99.90;;;;;;5093364;28;20036;-73
2022/02/05 04:05:16;;;;;;;3.45;2.03;;;2.00;99.90;;;;;;5075631;28;20048;-74
2022/02/05 04:07:51;;;;;;;2.67;1.50;;;1.90;99.90;;;;;;5093802;28;20039;-73
2022/02/05 04:10:30;;;;;;;2.35;1.38;;;1.90;99.90;;;;;;5075565;28;20492;-73
2022/02/05 04:18:31;;;;;;;2.13;1.60;;;1.50;99.90;;;;;;5075540;28;20048;-73
2022/02/05 04:21:04;;;;;;;1.60;1.40;;;1.40;99.90;;;;;;5092300;28;20040;-73
2022/02/05 04:23:36;;;;;;;3.47;1.45;;;1.40;99.90;;;;;;5074871;28;20406;-73
2022/02/05 04:26:08;;;;;;;2.13;1.23;;;1.30;99.90;;;;;;5093339;28;20554;-73
2022/02/05 04:28:35;;;;;;;1.98;1.10;;;1.30;99.90;;;;;;5058643;28;20739;-73
2022/02/05 04:31:07;;;;;;;3.70;1.20;;;1.30;99.90;;;;;;5092097;28;20044;-73
2022/02/05 04:33:39;;;;;;;1.20;0.85;;;1.30;99.90;;;;;;5074330;28;20046;-73
2022/02/05 04:36:07;;;;;;;3.08;1.05;;;1.20;99.90;;;;;;5075128;28;20066;-73
2022/02/05 04:38:41;;;;;;;1.55;1.10;;;1.20;99.90;;;;;;5092190;28;20141;-73
2022/02/05 04:43:58;;;;;;;1.58;0.90;;;1.10;99.90;;;;;;5091433;28;20491;-73
2022/02/05 05:02:55;;;;;;;2.00;1.38;;;1.00;99.90;;;;;;5074602;28;20384;-73
2022/02/05 05:08:10;;;;;;;1.80;1.10;;;0.90;99.90;;;;;;5092669;28;20036;-73
2022/02/05 05:21:45;;;;;;;2.45;0.90;;;0.50;99.90;;;;;;5092275;28;20044;-73
2022/02/05 05:24:17;;;;;;;2.55;1.25;;;0.50;99.90;;;;;;5091763;28;20050;-73
2022/02/05 05:26:48;;;;;;;2.63;1.50;;;0.50;99.90;;;;;;5091176;28;20039;-73
2022/02/05 05:29:21;;;;;;;1.75;0.95;;;0.60;99.90;;;;;;5092213;28;20518;-73
2022/02/05 05:31:52;;;;;;;2.92;1.38;;;0.60;99.90;;;;;;5092242;28;20043;-73
2022/02/05 05:34:24;;;;;;;1.48;1.30;;;0.60;99.90;;;;;;5074451;28;20039;-73
2022/02/05 05:36:56;;;;;;;3.08;1.20;;;0.60;99.90;;;;;;5073829;28;20532;-73
2022/02/05 05:39:31;;;;;;;2.53;1.45;;;0.60;99.90;;;;;;5092174;28;20126;-73
2022/02/05 05:42:06;;;;;;;2.50;1.50;;;0.60;99.90;;;;;;5091948;28;20135;-73
2022/02/05 05:44:52;;;;;;;5.00;1.65;;;0.60;99.90;;;;;;5073420;28;20058;-73
2022/02/05 05:50:05;;;;;;;3.22;2.10;;;0.70;99.90;;;;;;5091991;28;20127;-73
2022/02/05 05:52:36;;;;;;;4.25;1.80;;;0.70;99.90;;;;;;5091587;28;20111;-72
2022/02/05 05:55:08;;;;;;;2.30;1.60;;;0.70;99.90;;;;;;5091647;28;20071;-73
2022/02/05 05:57:40;;;;;;;3.15;1.83;;;0.70;99.90;;;;;;5074453;28;20130;-73
2022/02/05 06:00:07;;;;;;;6.65;2.10;;;0.70;99.90;;;;;;5091579;28;20048;-73
2022/02/05 06:02:39;;;;;;;3.08;1.58;;;0.70;99.90;;;;;;5073173;28;20131;-73
2022/02/05 06:05:11;;;;;;;2.40;1.70;;;0.70;99.90;;;;;;5091421;28;20058;-73
2022/02/05 06:07:37;;;;;;;1.77;1.30;;;0.60;99.90;;;;;;5091210;28;20075;-74
2022/02/05 06:10:09;;;;;;;3.42;1.70;;;0.60;99.90;;;;;;5071942;28;20514;-73
2022/02/05 06:12:41;;;;;;;1.65;1.42;;;0.60;99.90;;;;;;5096239;28;20536;-73
2022/02/05 06:15:09;;;;;;;2.20;1.67;;;0.60;99.90;;;;;;5070215;28;20040;-72
2022/02/05 06:17:41;;;;;;;2.30;1.50;;;0.60;99.90;;;;;;5094173;28;20051;-73
2022/02/05 06:20:13;;;;;;;2.92;1.40;;;0.60;99.90;;;;;;5091959;28;20115;-73
2022/02/05 06:22:45;;;;;;;3.22;1.50;;;0.60;99.90;;;;;;5089552;28;20800;-74
2022/02/05 06:25:17;;;;;;;3.78;1.73;;;0.60;99.90;;;;;;5068504;28;20127;-73
2022/02/05 06:27:48;;;;;;;3.15;2.00;;;0.60;99.90;;;;;;5075770;28;20513;-73
2022/02/05 06:30:20;;;;;;;2.88;1.60;;;0.60;99.90;;;;;;5072095;28;20036;-73
2022/02/05 06:32:52;;;;;;;3.72;1.95;;;0.60;99.90;;;;;;5089646;28;20044;-73
2022/02/05 06:35:23;;;;;;;2.25;1.58;;;0.60;99.90;;;;;;5089946;28;20028;-73
2022/02/05 06:37:55;;;;;;;2.85;1.60;;;0.60;99.90;;;;;;5088943;28;20043;-73
2022/02/05 06:40:27;;;;;;;2.55;1.70;;;0.60;99.90;;;;;;5089542;28;20036;-73
2022/02/05 06:42:54;;;;;;;2.08;1.52;;;0.70;99.90;;;;;;5085294;28;20040;-73
2022/02/05 06:45:26;;;;;;;3.20;1.48;;;0.60;99.90;;;;;;5090474;28;20050;-73
2022/02/05 06:47:59;;;;;;;4.32;2.00;;;0.60;99.90;;;;;;5090508;28;20093;-73
2022/02/05 06:50:26;;;;;;;6.35;2.00;;;0.60;99.90;;;;;;5071643;28;20155;-73
2022/02/05 06:52:53;;;;;;;4.75;2.00;;;0.60;99.90;;;;;;5055482;28;20044;-73
2022/02/05 06:55:25;;;;;;;2.58;1.63;;;0.60;99.90;;;;;;5056765;28;20123;-73
2022/02/05 06:57:57;;;;;;;2.67;1.73;;;0.60;99.90;;;;;;5089051;28;20052;-73
2022/02/05 07:00:28;;;;;;;3.92;2.00;;;0.60;99.90;;;;;;5089322;28;20075;-72
2022/02/05 07:03:00;;;;;;;5.13;1.50;;;0.60;99.90;;;;;;5051092;28;20051;-73
2022/02/05 07:05:32;;;;;;;4.35;2.00;;;0.60;99.90;;;;;;5078001;28;20040;-72
2022/02/05 07:07:59;;;;;;;3.28;1.80;;;0.60;99.90;;;;;;5089489;28;20494;-72
2022/02/05 07:10:26;;;;;;;4.35;2.10;;;0.60;99.90;;;;;;5090724;28;20047;-73
2022/02/05 07:15:35;;;;;;;2.80;1.90;;;0.50;99.90;;;;;;5072677;28;20044;-73
2022/02/05 07:21:06;;;;;;;4.35;2.38;;;0.60;99.90;;;;;;5077912;28;20062;-73
2022/02/05 07:31:49;;;;;;;3.33;2.50;;;0.70;99.90;;;;;;5113750;28;20039;-72
2022/02/05 07:34:23;;;;;;;3.58;2.70;;;0.80;99.90;;;;;;5076514;28;20483;-73
2022/02/05 07:37:02;;;;;;;2.92;2.03;;;0.80;99.90;;;;;;5073151;28;20045;-73
2022/02/05 07:39:31;;;;;;;3.53;2.20;;;0.80;99.90;;;;;;5064099;28;20111;-73
2022/02/05 07:42:00;;;;;;;3.70;2.25;;;0.80;99.90;;;;;;5092339;28;20103;-73
2022/02/05 07:44:27;;;;;;;4.93;2.50;;;0.80;99.90;;;;;;5075665;28;20047;-72
2022/02/05 07:47:00;;;;;;;2.70;1.98;;;0.80;99.90;;;;;;5075540;28;20516;-72
2022/02/05 07:49:39;;;;;;;2.72;1.98;;;0.90;99.90;;;;;;5092733;28;20048;-72
2022/02/05 07:52:11;;;;;;;4.78;2.03;;;1.00;99.90;;;;;;5093602;28;20044;-72
2022/02/05 07:54:43;;;;;;;5.20;2.70;;;1.00;99.90;;;;;;5092732;28;20040;-72
2022/02/05 07:57:10;;;;;;;3.50;1.98;;;1.10;99.90;;;;;;5092685;28;20072;-72
2022/02/05 07:59:41;;;;;;;2.53;2.25;;;1.10;99.90;;;;;;5092797;28;20040;-72
2022/02/05 08:02:14;;;;;;;4.20;1.98;;;1.20;99.90;;;;;;5075711;28;20040;-72
2022/02/05 08:04:46;;;;;;;4.68;1.85;;;1.20;99.90;;;;;;5092142;28;20089;-72
2022/02/05 08:07:18;;;;;;;4.85;2.47;;;1.30;99.90;;;;;;5085765;28;20039;-72
2022/02/05 08:12:23;;;;;;;4.30;1.80;;;1.30;99.90;;;;;;5093106;28;20058;-72
2022/02/05 08:14:57;;;;;;;5.97;2.20;;;1.40;99.90;;;;;;5084505;28;20032;-73
2022/02/05 08:17:33;;;;;;;3.03;1.70;;;1.50;99.90;;;;;;5094034;28;20119;-72
2022/02/05 08:20:06;;;;;;;2.88;1.50;;;1.60;99.90;;;;;;5093229;28;20036;-72
2022/02/05 08:22:34;;;;;;;2.55;1.73;;;1.70;99.90;;;;;;5092265;28;20040;-72
2022/02/05 08:25:06;;;;;;;4.95;2.17;;;1.80;99.90;;;;;;5075522;28;20065;-72
2022/02/05 08:27:35;;;;;;;3.58;1.75;;;1.80;99.90;;;;;;5093603;28;20063;-72
2022/02/05 08:30:10;;;;;;;6.43;1.55;;;1.90;99.90;;;;;;5101025;28;20491;-72
2022/02/05 08:32:45;;;;;;;3.53;1.75;;;1.90;99.90;;;;;;5100657;28;20044;-72
2022/02/05 08:35:12;;;;;;;2.53;1.20;;;2.00;99.90;;;;;;5091876;28;20040;-73
2022/02/05 08:37:44;;;;;;;3.08;1.50;;;2.00;99.90;;;;;;5093304;28;20093;-72
2022/02/05 08:40:16;;;;;;;2.80;1.48;;;2.10;99.90;;;;;;5069132;28;20036;-72
2022/02/05 08:42:48;;;;;;;1.80;1.50;;;2.20;99.90;;;;;;5076121;28;20047;-72
2022/02/05 08:45:21;;;;;;;2.55;1.50;;;2.30;99.90;;;;;;5088404;28;20036;-72
2022/02/05 08:47:53;;;;;;;3.70;1.42;;;2.30;99.90;;;;;;5073947;28;20038;-72
2022/02/05 08:50:26;;;;;;;6.43;1.52;;;2.40;99.90;;;;;;5069692;28;20194;-72
2022/02/05 08:52:58;;;;;;;7.75;1.73;;;2.40;99.90;;;;;;5093220;28;20039;-71
2022/02/05 08:55:32;;;;;;;3.42;1.30;;;2.40;99.90;;;;;;5092025;28;20041;-72
2022/02/05 08:58:07;;;;;;;3.00;1.33;;;2.40;99.90;;;;;;5075232;28;20764;-72
2022/02/05 09:00:47;;;;;;;6.53;1.50;;;2.40;99.90;;;;;;5076356;28;20139;-72
2022/02/05 09:03:35;;;;;;;4.35;2.00;;;2.40;99.90;;;;;;5092914;28;20032;-71
2022/02/05 09:06:10;;;;;;;3.45;1.40;;;2.50;99.90;;;;;;5093321;28;20044;-72
2022/02/05 09:08:49;;;;;;;4.03;1.67;;;2.60;99.90;;;;;;5093628;28;20124;-72
2022/02/05 09:11:32;;;;;;;2.47;1.20;;;2.60;99.90;;;;;;5095267;28;20094;-72
2022/02/05 09:14:13;;;;;;;3.47;2.30;;;2.60;99.90;;;;;;5080506;28;20043;-72
2022/02/05 09:16:46;;;;;;;2.38;1.05;;;2.70;99.90;;;;;;5072194;28;20082;-72
2022/02/05 09:19:18;;;;;;;2.67;1.38;;;2.80;99.90;;;;;;5056116;28;20499;-72
2022/02/05 09:21:50;;;;;;;3.60;1.10;;;2.80;99.90;;;;;;5099552;28;20096;-72
2022/02/05 09:24:17;;;;;;;3.00;1.52;;;2.80;99.90;;;;;;5106518;28;20051;-72
2022/02/05 09:26:57;;;;;;;4.25;1.42;;;2.90;99.90;;;;;;5111674;28;20035;-72
2022/02/05 09:29:33;;;;;;;4.07;1.42;;;3.00;99.90;;;;;;5092615;28;20036;-72
2022/02/05 09:32:00;;;;;;;4.22;1.33;;;3.00;99.90;;;;;;5099230;28;20610;-72
2022/02/05 09:34:32;;;;;;;2.88;1.10;;;3.00;99.90;;;;;;5084082;28;20047;-72
2022/02/05 09:36:59;;;;;;;3.88;1.38;;;3.10;99.90;;;;;;5063389;28;20055;-72
2022/02/05 09:39:31;;;;;;;3.20;1.00;;;3.10;99.90;;;;;;5065134;28;20422;-72
2022/02/05 09:42:03;;;;;;;3.55;1.40;;;3.20;99.90;;;;;;5073779;28;20071;-72
2022/02/05 09:44:35;;;;;;;1.70;1.00;;;3.20;99.90;;;;;;5090626;28;20048;-73
2022/02/05 09:47:03;;;;;;;3.72;1.05;;;3.20;99.90;;;;;;5073374;28;20068;-72
2022/02/05 09:49:30;;;;;;;2.20;1.10;;;3.30;99.90;;;;;;5090871;28;20036;-72
2022/02/05 09:52:09;;;;;;;1.42;0.90;;;3.30;99.90;;;;;;5082647;28;20063;-72
2022/02/05 09:54:43;;;;;;;5.90;1.30;;;3.40;99.90;;;;;;5091489;28;20032;-72
2022/02/05 09:57:10;;;;;;;4.32;1.70;;;3.50;99.90;;;;;;5057105;28;20067;-73
2022/02/05 09:59:47;;;;;;;3.05;1.15;;;3.50;99.90;;;;;;5090861;28;20513;-72
2022/02/05 10:02:25;;;;;;;3.70;1.23;;;3.50;99.90;;;;;;5073602;28;20052;-73
2022/02/05 10:05:07;;;;;;;3.42;1.02;;;3.50;99.90;;;;;;5076055;28;20048;-72
2022/02/05 10:07:56;;;;;;;4.60;1.10;;;3.60;99.90;;;;;;5057434;28;20035;-72
2022/02/05 10:10:35;;;;;;;3.08;1.10;;;3.60;99.90;;;;;;5091222;28;20046;-72
2022/02/05 10:13:13;;;;;;;3.85;0.90;;;3.70;99.90;;;;;;5073329;28;20044;-72
2022/02/05 10:15:52;;;;;;;3.22;1.20;;;3.70;99.90;;;;;;5038238;28;20126;-72
2022/02/05 10:18:26;;;;;;;3.55;1.83;;;3.70;99.90;;;;;;5071505;28;20058;-72
2022/02/05 10:21:03;;;;;;;4.13;1.17;;;3.70;99.90;;;;;;5091630;28;20098;-72
2022/02/05 10:23:31;;;;;;;3.97;1.70;;;3.80;99.90;;;;;;5081442;28;20580;-72
2022/02/05 10:25:58;;;;;;;5.85;1.33;;;3.80;99.90;;;;;;5069986;28;20051;-72
2022/02/05 10:28:29;;;;;;;2.88;1.08;;;3.80;99.90;;;;;;5085316;28;20129;-72
2022/02/05 10:30:56;;;;;;;4.75;1.30;;;3.70;99.90;;;;;;5088308;28;20036;-71
2022/02/05 10:33:32;;;;;;;5.32;1.30;;;3.80;99.90;;;;;;5089043;28;20063;-72
2022/02/05 10:44:11;;;;;;;2.13;1.33;;;4.00;99.90;;;;;;5091043;28;20122;-72
2022/02/05 10:46:42;;;;;;;2.95;1.00;;;4.00;99.90;;;;;;5073446;28;20047;-72
2022/02/05 10:49:31;;;;;;;6.85;2.25;;;4.00;99.90;;;;;;5073744;28;20033;-72
2022/02/05 10:52:03;;;;;;;4.53;1.30;;;4.10;99.90;;;;;;5070612;28;20044;-72
2022/02/05 10:54:55;;;;;;;2.38;1.08;;;4.10;99.90;;;;;;5052836;28;20044;-72
2022/02/05 10:57:30;;;;;;;5.43;1.25;;;4.10;99.90;;;;;;5069950;28;20128;-72
2022/02/05 11:05:50;;;;;;;4.15;1.48;;;4.20;99.90;;;;;;5069809;28;20068;-72
2022/02/05 11:08:22;;;;;;;3.22;1.45;;;4.20;99.90;;;;;;5071007;28;20059;-72
2022/02/05 11:19:13;;;;;;;4.57;1.48;;;4.20;99.90;;;;;;5091266;28;20036;-72
2022/02/05 11:21:46;;;;;;;4.23;1.77;;;4.30;99.90;;;;;;5091412;28;20044;-72
2022/02/05 11:24:23;;;;;;;3.03;1.40;;;4.40;99.90;;;;;;5073891;28;20086;-73
2022/02/05 11:26:55;;;;;;;3.05;1.27;;;4.40;99.90;;;;;;5091383;28;20040;-71
2022/02/05 11:29:32;;;;;;;2.13;1.10;;;4.50;99.90;;;;;;5056909;28;20460;-72
2022/02/05 11:32:22;;;;;;;3.42;1.58;;;4.50;99.90;;;;;;5091367;28;20080;-72
2022/02/05 11:35:05;;;;;;;3.50;1.30;;;4.60;99.90;;;;;;5053622;28;20048;-72
2022/02/05 11:37:57;;;;;;;5.32;1.17;;;4.70;99.90;;;;;;5093764;28;20043;-72
2022/02/05 11:40:43;;;;;;;2.70;1.23;;;4.70;99.90;;;;;;5070346;28;20044;-72
2022/02/05 11:43:21;;;;;;;5.25;1.35;;;4.80;99.90;;;;;;5063402;28;20047;-72
2022/02/05 11:46:11;;;;;;;2.42;1.17;;;4.90;99.90;;;;;;5084413;28;20047;-72
2022/02/05 11:48:50;;;;;;;5.50;1.50;;;5.00;99.90;;;;;;5074642;28;20051;-72
2022/02/05 11:51:28;;;;;;;4.35;1.50;;;5.00;99.90;;;;;;5070571;28;20040;-73
2022/02/05 11:54:08;;;;;;;10.70;2.22;;;5.10;99.90;;;;;;5057241;28;20047;-72
2022/02/05 11:56:55;;;;;;;3.58;1.35;;;5.10;99.90;;;;;;5058909;28;20047;-72
2022/02/05 11:59:49;;;;;;;4.45;1.90;;;5.20;99.90;;;;;;5072078;28;20079;-72
2022/02/05 12:02:22;;;;;;;7.82;2.10;;;5.10;99.90;;;;;;5089533;28;20044;-72
2022/02/05 12:05:21;;;;;;;7.90;2.33;;;5.10;99.90;;;;;;5058039;28;20047;-73
2022/02/05 12:08:04;;;;;;;6.90;2.40;;;5.10;99.90;;;;;;5067728;28;20136;-72
2022/02/05 12:10:39;;;;;;;5.05;1.17;;;5.00;99.90;;;;;;5056142;28;20407;-72
2022/02/05 12:13:40;;;;;;;3.53;1.30;;;4.90;99.90;;;;;;5068652;28;20040;-72
2022/02/05 12:16:11;;;;;;;7.15;1.35;;;4.80;99.90;;;;;;5093098;28;20040;-72
2022/02/05 12:19:13;;;;;;;4.57;3.30;;;5.00;99.90;;;;;;5074913;28;20040;-73
2022/02/05 12:22:03;;;;;;;3.17;1.17;;;5.10;99.90;;;;;;5081707;28;20110;-72
2022/02/05 12:25:21;;;;;;;5.97;1.58;;;5.20;99.90;;;;;;5073610;28;20279;-72
2022/02/05 12:27:54;;;;;;;3.88;1.15;;;5.40;99.90;;;;;;5075356;28;20556;-72
2022/02/05 12:30:36;;;;;;;3.80;0.88;;;5.40;99.90;;;;;;5093527;28;20113;-72
2022/02/05 12:33:09;;;;;;;4.03;1.65;;;5.50;99.90;;;;;;5093182;28;20032;-72
2022/02/05 12:35:50;;;;;;;4.00;1.45;;;5.60;99.90;;;;;;5075596;28;20036;-73
2022/02/05 12:38:24;;;;;;;6.07;1.65;;;5.50;99.90;;;;;;5092818;28;20429;-72
2022/02/05 12:40:56;;;;;;;2.72;1.27;;;5.60;99.90;;;;;;5074057;28;20418;-72
2022/02/05 12:43:30;;;;;;;3.60;1.10;;;5.60;99.90;;;;;;5073594;28;20054;-73
2022/02/05 12:46:09;;;;;;;2.38;1.55;;;5.70;99.90;;;;;;5068612;28;20050;-72
2022/02/05 12:48:39;;;;;;;3.85;1.50;;;5.70;99.90;;;;;;5072840;28;20048;-72
2022/02/05 12:51:13;;;;;;;8.45;2.28;;;5.70;99.90;;;;;;5076033;28;20040;-73
2022/02/05 12:53:47;;;;;;;3.35;1.48;;;5.70;99.90;;;;;;5075800;28;20044;-73
2022/02/05 12:56:22;;;;;;;5.00;1.48;;;5.70;99.90;;;;;;5092941;28;20047;-73
2022/02/05 12:59:06;;;;;;;6.55;1.30;;;5.70;99.90;;;;;;5058517;28;20117;-72
2022/02/05 13:02:01;;;;;;;5.00;1.30;;;5.70;99.90;;;;;;5071988;28;20036;-72
2022/02/05 13:04:36;;;;;;;1.50;1.13;;;5.80;99.90;;;;;;5089674;28;20036;-71
2022/02/05 13:07:21;;;;;;;4.82;1.35;;;5.80;99.90;;;;;;5094050;28;20044;-71
2022/02/05 13:09:57;;;;;;;5.10;1.90;;;5.80;99.90;;;;;;5092575;28;20036;-72
2022/02/05 13:12:39;;;;;;;6.05;1.30;;;5.60;99.90;;;;;;5093675;28;20031;-72
2022/02/05 13:15:30;;;;;;;3.05;1.40;;;5.50;99.90;;;;;;5075089;28;20098;-72
2022/02/05 13:34:31;;;;;;;;;;;5.70;99.90;;;;;;5085900;28;20060;-71
2022/02/05 13:42:18;;;;;;;2.95;1.10;;;5.80;99.90;;;;;;5092837;28;20048;-72
2022/02/05 13:45:10;;;;;;;6.82;1.45;;;5.80;99.90;;;;;;5092279;28;20099;-72
2022/02/05 13:47:44;;;;;;;2.55;1.08;;;5.80;99.90;;;;;;5071904;28;20079;-72
2022/02/05 13:50:15;;;;;;;3.80;1.88;;;5.90;99.90;;;;;;5071276;28;20069;-72
2022/02/05 13:52:51;;;;;;;1.50;0.90;;;5.90;99.90;;;;;;5053339;28;20036;-72
2022/02/05 13:55:30;;;;;;;2.60;0.95;;;5.90;99.90;;;;;;5067946;28;20102;-73
2022/02/05 13:58:04;;;;;;;1.38;0.90;;;6.00;99.90;;;;;;5075493;28;20478;-72
2022/02/05 14:00:52;;;;;;;2.42;1.02;;;6.10;99.90;;;;;;5091920;28;20066;-72
2022/02/05 14:03:37;;;;;;;3.10;1.20;;;6.00;99.90;;;;;;5090996;28;20402;-72
2022/02/05 14:06:15;;;;;;;2.85;1.20;;;6.00;99.90;;;;;;5074728;28;20040;-72
2022/02/05 14:08:52;;;;;;;3.78;1.63;;;6.00;99.90;;;;;;5091523;28;20044;-72
2022/02/05 14:11:29;;;;;;;4.50;1.45;;;6.10;99.90;;;;;;5058039;28;20047;-72
2022/02/05 14:14:13;;;;;;;4.72;1.67;;;6.10;99.90;;;;;;5089101;28;20052;-72
2022/02/05 14:16:47;;;;;;;3.25;1.20;;;6.10;99.90;;;;;;5074761;28;20044;-72
2022/02/05 14:19:27;;;;;;;2.90;1.15;;;6.10;99.90;;;;;;5073602;28;20051;-72
2022/02/05 14:21:57;;;;;;;3.60;0.98;;;6.00;99.90;;;;;;5073554;28;20044;-72
2022/02/05 14:24:30;;;;;;;5.63;1.23;;;6.10;99.90;;;;;;5072938;28;20438;-72
2022/02/05 14:27:18;;;;;;;11.65;1.70;;;6.00;99.90;;;;;;5072542;28;20048;-72
2022/02/05 14:32:32;;;;;;;2.28;1.10;;;6.00;99.90;;;;;;5090511;28;20036;-72
2022/02/05 14:42:56;;;;;;;4.75;1.95;;;6.00;99.90;;;;;;5090569;28;20569;-72
2022/02/05 14:45:23;;;;;;;4.70;1.60;;;6.10;99.90;;;;;;5091150;28;20047;-72
2022/02/05 14:47:58;;;;;;;4.22;1.17;;;6.10;99.90;;;;;;5072952;28;20044;-72
2022/02/05 14:50:31;;;;;;;4.47;1.27;;;6.10;99.90;;;;;;5073152;28;20517;-73
2022/02/05 14:53:10;;;;;;;3.90;1.15;;;6.20;99.90;;;;;;5072656;28;20048;-72
2022/02/05 14:55:43;;;;;;;4.63;1.25;;;6.10;99.90;;;;;;5089689;28;20119;-72
2022/02/05 14:58:14;;;;;;;3.75;1.10;;;6.00;99.90;;;;;;5096791;28;20592;-72
2022/02/05 15:00:41;;;;;;;3.35;1.10;;;5.90;99.90;;;;;;5078717;28;20044;-73
2022/02/05 15:03:14;;;;;;;2.05;1.17;;;5.90;99.90;;;;;;5087561;28;20072;-72
2022/02/05 15:05:46;;;;;;;3.17;1.00;;;5.90;99.90;;;;;;5080223;28;20039;-73
2022/02/05 15:08:21;;;;;;;3.83;1.10;;;5.90;99.90;;;;;;5068146;28;20105;-73
2022/02/05 15:10:53;;;;;;;5.15;1.42;;;5.90;99.90;;;;;;5089472;28;20135;-72
2022/02/05 15:13:25;;;;;;;2.47;1.25;;;5.90;99.90;;;;;;5090530;28;20050;-72
2022/02/05 15:16:02;;;;;;;4.78;1.23;;;5.90;99.90;;;;;;5072269;28;20068;-72
2022/02/05 15:18:33;;;;;;;2.83;0.98;;;5.80;99.90;;;;;;5091139;28;20050;-72
2022/02/05 15:21:05;;;;;;;3.38;1.30;;;5.70;99.90;;;;;;5090643;28;20517;-73
2022/02/05 15:23:37;;;;;;;2.75;0.85;;;5.70;99.90;;;;;;5089424;28;20044;-73
2022/02/05 15:26:10;;;;;;;5.57;1.17;;;5.70;99.90;;;;;;5072878;28;20048;-73
2022/02/05 15:28:37;;;;;;;2.67;1.45;;;5.60;99.90;;;;;;5056309;28;20487;-71
2022/02/05 15:31:10;;;;;;;2.80;0.87;;;5.60;99.90;;;;;;5073758;28;20082;-72
2022/02/05 15:33:44;;;;;;;2.45;1.13;;;5.60;99.90;;;;;;5057430;28;20123;-72
2022/02/05 15:36:28;;;;;;;4.03;1.00;;;5.50;99.90;;;;;;5089530;28;20046;-72
2022/02/05 15:44:23;;;;;;;1.77;0.95;;;5.40;99.90;;;;;;5081823;28;20088;-72
2022/02/05 15:46:55;;;;;;;1.20;0.80;;;5.30;99.90;;;;;;5076489;28;20047;-72
2022/02/05 15:49:22;;;;;;;3.53;1.00;;;5.20;99.90;;;;;;5093846;28;20047;-72
2022/02/05 15:52:04;;;;;;;2.65;1.10;;;5.20;99.90;;;;;;5067639;28;20479;-72
2022/02/05 15:54:38;;;;;;;7.68;1.13;;;5.10;99.90;;;;;;5075438;28;20067;-72
2022/02/05 15:57:18;;;;;;;4.10;1.05;;;5.00;99.90;;;;;;5093886;28;20048;-71
2022/02/05 16:00:08;;;;;;;2.85;2.15;;;4.90;99.90;;;;;;5091098;28;20113;-72
2022/02/05 16:02:45;;;;;;;17.05;2.67;;;4.80;99.90;;;;;;5093435;28;20052;-72
2022/02/05 16:05:17;;;;;;;3.47;1.00;;;4.70;99.90;;;;;;5093796;28;20190;-72
2022/02/05 16:07:44;;;;;;;11.55;1.77;;;4.70;99.90;;;;;;5094117;28;20039;-73
2022/02/05 16:10:18;;;;;;;5.85;1.13;;;4.60;99.90;;;;;;5093958;28;20040;-72
2022/02/05 16:12:47;;;;;;;3.63;1.50;;;4.40;99.90;;;;;;5093205;28;20526;-72
2022/02/05 16:15:21;;;;;;;5.60;2.58;;;4.40;99.90;;;;;;5092780;28;20042;-72
2022/02/05 16:17:53;;;;;;;5.30;1.30;;;4.30;99.90;;;;;;5075708;28;20048;-72
2022/02/05 16:20:25;;;;;;;3.80;1.00;;;4.30;99.90;;;;;;5059359;28;20052;-71
2022/02/05 16:22:57;;;;;;;4.15;0.98;;;4.20;99.90;;;;;;5081440;28;20048;-72
2022/02/05 16:25:24;;;;;;;2.67;1.60;;;4.20;99.90;;;;;;5054945;28;20045;-72
2022/02/05 16:27:56;;;;;;;3.10;1.10;;;4.10;99.90;;;;;;5072931;28;20129;-72
2022/02/05 16:30:31;;;;;;;3.53;1.35;;;4.00;99.90;;;;;;5082756;28;20047;-72
2022/02/05 16:33:12;;;;;;;1.50;0.68;;;3.80;99.90;;;;;;5092105;28;20169;-72
2022/02/05 16:35:48;;;;;;;4.22;1.00;;;3.70;99.90;;;;;;5092633;28;20136;-73
2022/02/05 16:38:28;;;;;;;1.85;0.90;;;3.70;99.90;;;;;;5092792;28;20050;-72
2022/02/05 16:40:56;;;;;;;1.70;1.00;;;3.70;99.90;;;;;;5092688;28;20119;-73
2022/02/05 16:43:28;;;;;;;2.50;0.95;;;3.70;99.90;;;;;;5105628;28;20038;-71
2022/02/05 16:46:01;;;;;;;1.60;0.75;;;3.70;99.90;;;;;;5093187;28;20056;-72
2022/02/05 16:48:34;;;;;;;1.60;0.80;;;3.70;99.90;;;;;;5071535;28;20500;-72
2022/02/05 16:51:17;;;;;;;2.92;1.08;;;3.60;99.90;;;;;;5071212;28;20078;-72
2022/02/05 16:53:50;;;;;;;1.85;0.82;;;3.70;99.90;;;;;;5075422;28;20048;-73
2022/02/05 16:56:22;;;;;;;1.20;0.80;;;3.70;99.90;;;;;;5058666;28;20074;-71
2022/02/05 16:59:01;;;;;;;3.05;1.30;;;3.70;99.90;;;;;;5093016;28;20048;-72